sensor_id;sensor_type;location;lat;lon;timestamp;P1;durP1;ratioP1;P2;durP2;ratioP2
70138;SDS011;57507;43.056;0.150;2023-02-22T00:02:25;19.27;;;10.18;;
70138;SDS011;57507;43.056;0.150;2023-02-22T00:04:53;17.67;;;10.65;;
70138;SDS011;57507;43.056;0.150;2023-02-22T00:07:19;15.63;;;10.25;;
70138;SDS011;57507;43.056;0.150;2023-02-22T00:09:45;21.65;;;10.25;;
70138;SDS011;57507;43.056;0.150;2023-02-22T00:12:11;20.95;;;11.05;;
70138;SDS011;57507;43.056;0.150;2023-02-22T00:14:38;19.20;;;10.73;;
70138;SDS011;57507;43.056;0.150;2023-02-22T00:17:04;16.98;;;10.23;;
70138;SDS011;57507;43.056;0.150;2023-02-22T00:19:30;17.70;;;9.65;;
70138;SDS011;57507;43.056;0.150;2023-02-22T00:21:56;18.15;;;9.52;;
70138;SDS011;57507;43.056;0.150;2023-02-22T00:24:22;19.27;;;9.52;;
70138;SDS011;57507;43.056;0.150;2023-02-22T00:26:52;18.20;;;10.05;;
70138;SDS011;57507;43.056;0.150;2023-02-22T00:29:22;19.90;;;10.60;;
70138;SDS011;57507;43.056;0.150;2023-02-22T00:31:48;21.35;;;10.20;;
70138;SDS011;57507;43.056;0.150;2023-02-22T00:34:14;22.10;;;10.18;;
70138;SDS011;57507;43.056;0.150;2023-02-22T00:36:47;17.52;;;9.70;;
70138;SDS011;57507;43.056;0.150;2023-02-22T00:39:13;19.07;;;9.63;;
70138;SDS011;57507;43.056;0.150;2023-02-22T00:41:39;18.23;;;9.70;;
70138;SDS011;57507;43.056;0.150;2023-02-22T00:44:06;17.00;;;9.27;;
70138;SDS011;57507;43.056;0.150;2023-02-22T00:46:32;20.55;;;10.60;;
70138;SDS011;57507;43.056;0.150;2023-02-22T00:48:58;18.42;;;9.80;;
70138;SDS011;57507;43.056;0.150;2023-02-22T00:51:24;16.45;;;9.55;;
70138;SDS011;57507;43.056;0.150;2023-02-22T00:53:51;19.30;;;10.13;;
70138;SDS011;57507;43.056;0.150;2023-02-22T00:56:17;19.65;;;9.95;;
70138;SDS011;57507;43.056;0.150;2023-02-22T00:58:43;17.17;;;10.07;;
70138;SDS011;57507;43.056;0.150;2023-02-22T01:01:09;14.50;;;9.70;;
70138;SDS011;57507;43.056;0.150;2023-02-22T01:03:35;15.40;;;9.57;;
70138;SDS011;57507;43.056;0.150;2023-02-22T01:06:05;19.23;;;10.57;;
70138;SDS011;57507;43.056;0.150;2023-02-22T01:08:31;18.23;;;10.80;;
70138;SDS011;57507;43.056;0.150;2023-02-22T01:10:58;17.90;;;9.95;;
70138;SDS011;57507;43.056;0.150;2023-02-22T01:13:24;18.85;;;9.60;;
70138;SDS011;57507;43.056;0.150;2023-02-22T01:15:50;18.25;;;9.85;;
70138;SDS011;57507;43.056;0.150;2023-02-22T01:18:16;21.05;;;10.93;;
70138;SDS011;57507;43.056;0.150;2023-02-22T01:20:42;17.35;;;9.90;;
70138;SDS011;57507;43.056;0.150;2023-02-22T01:23:12;19.35;;;9.82;;
70138;SDS011;57507;43.056;0.150;2023-02-22T01:25:38;16.70;;;10.13;;
70138;SDS011;57507;43.056;0.150;2023-02-22T01:28:05;14.77;;;9.02;;
70138;SDS011;57507;43.056;0.150;2023-02-22T01:30:32;15.90;;;9.93;;
70138;SDS011;57507;43.056;0.150;2023-02-22T01:32:59;15.65;;;10.13;;
70138;SDS011;57507;43.056;0.150;2023-02-22T01:35:26;13.45;;;8.63;;
70138;SDS011;57507;43.056;0.150;2023-02-22T01:37:53;16.45;;;9.10;;
70138;SDS011;57507;43.056;0.150;2023-02-22T01:40:24;14.30;;;9.07;;
70138;SDS011;57507;43.056;0.150;2023-02-22T01:42:51;16.77;;;9.65;;
70138;SDS011;57507;43.056;0.150;2023-02-22T01:48:03;14.93;;;8.93;;
70138;SDS011;57507;43.056;0.150;2023-02-22T01:50:31;17.23;;;9.32;;
70138;SDS011;57507;43.056;0.150;2023-02-22T01:52:57;15.40;;;9.48;;
70138;SDS011;57507;43.056;0.150;2023-02-22T01:55:24;15.35;;;9.13;;
70138;SDS011;57507;43.056;0.150;2023-02-22T01:57:50;16.83;;;8.65;;
70138;SDS011;57507;43.056;0.150;2023-02-22T02:00:17;16.73;;;9.68;;
70138;SDS011;57507;43.056;0.150;2023-02-22T02:02:48;16.77;;;9.40;;
70138;SDS011;57507;43.056;0.150;2023-02-22T02:05:15;16.63;;;8.98;;
70138;SDS011;57507;43.056;0.150;2023-02-22T02:07:41;15.07;;;9.38;;
70138;SDS011;57507;43.056;0.150;2023-02-22T02:10:11;17.80;;;9.23;;
70138;SDS011;57507;43.056;0.150;2023-02-22T02:12:39;17.55;;;9.00;;
70138;SDS011;57507;43.056;0.150;2023-02-22T02:15:19;16.00;;;9.73;;
70138;SDS011;57507;43.056;0.150;2023-02-22T02:17:46;18.67;;;9.77;;
70138;SDS011;57507;43.056;0.150;2023-02-22T02:20:16;14.30;;;9.13;;
70138;SDS011;57507;43.056;0.150;2023-02-22T02:25:27;19.20;;;10.45;;
70138;SDS011;57507;43.056;0.150;2023-02-22T02:33:02;18.38;;;10.15;;
70138;SDS011;57507;43.056;0.150;2023-02-22T02:38:15;19.58;;;10.27;;
70138;SDS011;57507;43.056;0.150;2023-02-22T02:43:21;15.38;;;9.27;;
70138;SDS011;57507;43.056;0.150;2023-02-22T02:45:52;18.65;;;10.70;;
70138;SDS011;57507;43.056;0.150;2023-02-22T02:48:20;19.05;;;10.23;;
70138;SDS011;57507;43.056;0.150;2023-02-22T02:50:48;16.80;;;9.63;;
70138;SDS011;57507;43.056;0.150;2023-02-22T02:53:17;17.33;;;10.88;;
70138;SDS011;57507;43.056;0.150;2023-02-22T02:55:44;19.17;;;9.68;;
70138;SDS011;57507;43.056;0.150;2023-02-22T02:58:15;18.40;;;9.20;;
70138;SDS011;57507;43.056;0.150;2023-02-22T03:00:41;16.17;;;9.10;;
70138;SDS011;57507;43.056;0.150;2023-02-22T03:06:31;15.27;;;10.00;;
70138;SDS011;57507;43.056;0.150;2023-02-22T03:08:44;18.38;;;9.73;;
70138;SDS011;57507;43.056;0.150;2023-02-22T03:11:19;17.40;;;10.10;;
70138;SDS011;57507;43.056;0.150;2023-02-22T03:13:50;19.40;;;10.30;;
70138;SDS011;57507;43.056;0.150;2023-02-22T03:21:26;19.70;;;10.13;;
70138;SDS011;57507;43.056;0.150;2023-02-22T03:26:23;16.42;;;9.70;;
70138;SDS011;57507;43.056;0.150;2023-02-22T03:28:50;17.70;;;10.55;;
70138;SDS011;57507;43.056;0.150;2023-02-22T03:31:27;19.25;;;10.38;;
70138;SDS011;57507;43.056;0.150;2023-02-22T03:33:55;19.02;;;10.80;;
70138;SDS011;57507;43.056;0.150;2023-02-22T03:36:27;18.35;;;10.38;;
70138;SDS011;57507;43.056;0.150;2023-02-22T03:38:54;16.20;;;10.30;;
70138;SDS011;57507;43.056;0.150;2023-02-22T03:41:23;15.82;;;10.63;;
70138;SDS011;57507;43.056;0.150;2023-02-22T03:43:50;19.17;;;10.73;;
70138;SDS011;57507;43.056;0.150;2023-02-22T03:46:18;21.45;;;12.00;;
70138;SDS011;57507;43.056;0.150;2023-02-22T03:48:58;16.42;;;10.63;;
70138;SDS011;57507;43.056;0.150;2023-02-22T03:51:26;16.27;;;9.48;;
70138;SDS011;57507;43.056;0.150;2023-02-22T03:53:53;15.45;;;9.68;;
70138;SDS011;57507;43.056;0.150;2023-02-22T03:56:26;21.20;;;11.25;;
70138;SDS011;57507;43.056;0.150;2023-02-22T03:58:59;16.70;;;10.77;;
70138;SDS011;57507;43.056;0.150;2023-02-22T04:01:25;15.45;;;9.65;;
70138;SDS011;57507;43.056;0.150;2023-02-22T04:03:51;20.13;;;11.00;;
70138;SDS011;57507;43.056;0.150;2023-02-22T04:06:17;22.25;;;11.75;;
70138;SDS011;57507;43.056;0.150;2023-02-22T04:08:43;19.67;;;11.45;;
70138;SDS011;57507;43.056;0.150;2023-02-22T04:11:10;20.25;;;12.48;;
70138;SDS011;57507;43.056;0.150;2023-02-22T04:13:36;17.98;;;11.40;;
70138;SDS011;57507;43.056;0.150;2023-02-22T04:16:02;16.77;;;10.90;;
70138;SDS011;57507;43.056;0.150;2023-02-22T04:18:28;19.17;;;10.77;;
70138;SDS011;57507;43.056;0.150;2023-02-22T04:20:54;19.83;;;11.02;;
70138;SDS011;57507;43.056;0.150;2023-02-22T04:23:20;19.15;;;11.00;;
70138;SDS011;57507;43.056;0.150;2023-02-22T04:25:46;20.02;;;10.95;;
70138;SDS011;57507;43.056;0.150;2023-02-22T04:28:12;14.63;;;10.60;;
70138;SDS011;57507;43.056;0.150;2023-02-22T04:30:38;19.20;;;10.98;;
70138;SDS011;57507;43.056;0.150;2023-02-22T04:33:04;17.92;;;10.25;;
70138;SDS011;57507;43.056;0.150;2023-02-22T04:35:30;21.05;;;10.85;;
70138;SDS011;57507;43.056;0.150;2023-02-22T04:37:56;18.17;;;10.15;;
70138;SDS011;57507;43.056;0.150;2023-02-22T04:40:22;18.27;;;10.73;;
70138;SDS011;57507;43.056;0.150;2023-02-22T04:42:48;20.83;;;10.82;;
70138;SDS011;57507;43.056;0.150;2023-02-22T04:45:14;19.55;;;10.75;;
70138;SDS011;57507;43.056;0.150;2023-02-22T04:47:40;19.83;;;11.02;;
70138;SDS011;57507;43.056;0.150;2023-02-22T04:50:07;23.05;;;12.57;;
70138;SDS011;57507;43.056;0.150;2023-02-22T04:52:33;16.58;;;9.60;;
70138;SDS011;57507;43.056;0.150;2023-02-22T04:54:59;17.67;;;12.20;;
70138;SDS011;57507;43.056;0.150;2023-02-22T04:57:25;17.52;;;10.95;;
70138;SDS011;57507;43.056;0.150;2023-02-22T04:59:51;22.13;;;12.07;;
70138;SDS011;57507;43.056;0.150;2023-02-22T05:02:18;17.30;;;11.23;;
70138;SDS011;57507;43.056;0.150;2023-02-22T05:04:44;21.60;;;11.68;;
70138;SDS011;57507;43.056;0.150;2023-02-22T05:07:10;17.00;;;10.85;;
70138;SDS011;57507;43.056;0.150;2023-02-22T05:09:36;17.75;;;11.73;;
70138;SDS011;57507;43.056;0.150;2023-02-22T05:12:02;21.02;;;12.98;;
70138;SDS011;57507;43.056;0.150;2023-02-22T05:14:28;21.50;;;14.32;;
70138;SDS011;57507;43.056;0.150;2023-02-22T05:16:55;32.20;;;18.63;;
70138;SDS011;57507;43.056;0.150;2023-02-22T05:19:21;25.33;;;15.88;;
70138;SDS011;57507;43.056;0.150;2023-02-22T05:21:48;19.30;;;11.05;;
70138;SDS011;57507;43.056;0.150;2023-02-22T05:24:14;19.85;;;10.98;;
70138;SDS011;57507;43.056;0.150;2023-02-22T05:26:42;23.13;;;11.95;;
70138;SDS011;57507;43.056;0.150;2023-02-22T05:29:09;18.98;;;11.82;;
70138;SDS011;57507;43.056;0.150;2023-02-22T05:31:35;21.77;;;11.75;;
70138;SDS011;57507;43.056;0.150;2023-02-22T05:34:01;18.05;;;11.02;;
70138;SDS011;57507;43.056;0.150;2023-02-22T05:36:27;16.67;;;11.00;;
70138;SDS011;57507;43.056;0.150;2023-02-22T05:38:53;17.90;;;11.10;;
70138;SDS011;57507;43.056;0.150;2023-02-22T05:41:19;19.50;;;11.75;;
70138;SDS011;57507;43.056;0.150;2023-02-22T05:43:45;18.67;;;10.93;;
70138;SDS011;57507;43.056;0.150;2023-02-22T05:46:12;16.90;;;11.52;;
70138;SDS011;57507;43.056;0.150;2023-02-22T05:48:38;18.10;;;11.27;;
70138;SDS011;57507;43.056;0.150;2023-02-22T05:51:05;18.48;;;10.90;;
70138;SDS011;57507;43.056;0.150;2023-02-22T05:53:31;19.10;;;10.65;;
70138;SDS011;57507;43.056;0.150;2023-02-22T05:55:57;19.77;;;11.10;;
70138;SDS011;57507;43.056;0.150;2023-02-22T05:58:26;16.60;;;11.63;;
70138;SDS011;57507;43.056;0.150;2023-02-22T06:00:52;20.10;;;11.13;;
70138;SDS011;57507;43.056;0.150;2023-02-22T06:03:18;19.40;;;11.02;;
70138;SDS011;57507;43.056;0.150;2023-02-22T06:05:44;19.27;;;10.38;;
70138;SDS011;57507;43.056;0.150;2023-02-22T06:08:10;18.77;;;10.70;;
70138;SDS011;57507;43.056;0.150;2023-02-22T06:10:36;15.77;;;10.00;;
70138;SDS011;57507;43.056;0.150;2023-02-22T06:13:03;15.57;;;10.02;;
70138;SDS011;57507;43.056;0.150;2023-02-22T06:15:29;17.10;;;11.45;;
70138;SDS011;57507;43.056;0.150;2023-02-22T06:17:55;16.08;;;9.77;;
70138;SDS011;57507;43.056;0.150;2023-02-22T06:20:23;15.20;;;10.30;;
70138;SDS011;57507;43.056;0.150;2023-02-22T06:22:50;20.23;;;12.55;;
70138;SDS011;57507;43.056;0.150;2023-02-22T06:25:18;24.70;;;14.55;;
70138;SDS011;57507;43.056;0.150;2023-02-22T06:27:45;19.15;;;12.80;;
70138;SDS011;57507;43.056;0.150;2023-02-22T06:30:11;16.42;;;10.13;;
70138;SDS011;57507;43.056;0.150;2023-02-22T06:32:37;19.67;;;10.10;;
70138;SDS011;57507;43.056;0.150;2023-02-22T06:35:04;19.52;;;11.18;;
70138;SDS011;57507;43.056;0.150;2023-02-22T06:37:30;20.25;;;11.13;;
70138;SDS011;57507;43.056;0.150;2023-02-22T06:39:56;20.30;;;11.10;;
70138;SDS011;57507;43.056;0.150;2023-02-22T06:42:22;18.92;;;10.60;;
70138;SDS011;57507;43.056;0.150;2023-02-22T06:44:48;16.75;;;10.73;;
70138;SDS011;57507;43.056;0.150;2023-02-22T06:47:14;20.05;;;11.60;;
70138;SDS011;57507;43.056;0.150;2023-02-22T06:49:40;20.15;;;11.18;;
70138;SDS011;57507;43.056;0.150;2023-02-22T06:52:07;17.88;;;11.50;;
70138;SDS011;57507;43.056;0.150;2023-02-22T06:54:33;18.30;;;10.40;;
70138;SDS011;57507;43.056;0.150;2023-02-22T06:56:59;20.55;;;12.48;;
70138;SDS011;57507;43.056;0.150;2023-02-22T06:59:25;23.35;;;12.82;;
70138;SDS011;57507;43.056;0.150;2023-02-22T07:01:52;22.13;;;12.80;;
70138;SDS011;57507;43.056;0.150;2023-02-22T07:04:18;18.50;;;11.75;;
70138;SDS011;57507;43.056;0.150;2023-02-22T07:06:45;23.98;;;12.80;;
70138;SDS011;57507;43.056;0.150;2023-02-22T07:09:11;19.02;;;10.65;;
70138;SDS011;57507;43.056;0.150;2023-02-22T07:11:38;17.15;;;10.98;;
70138;SDS011;57507;43.056;0.150;2023-02-22T07:14:04;18.85;;;11.10;;
70138;SDS011;57507;43.056;0.150;2023-02-22T07:16:33;16.75;;;10.50;;
70138;SDS011;57507;43.056;0.150;2023-02-22T07:18:59;18.98;;;11.32;;
70138;SDS011;57507;43.056;0.150;2023-02-22T07:21:26;21.15;;;12.20;;
70138;SDS011;57507;43.056;0.150;2023-02-22T07:23:52;23.08;;;12.52;;
70138;SDS011;57507;43.056;0.150;2023-02-22T07:26:19;21.67;;;11.82;;
70138;SDS011;57507;43.056;0.150;2023-02-22T07:28:45;19.15;;;11.45;;
70138;SDS011;57507;43.056;0.150;2023-02-22T07:31:11;20.13;;;12.35;;
70138;SDS011;57507;43.056;0.150;2023-02-22T07:33:37;24.63;;;12.82;;
70138;SDS011;57507;43.056;0.150;2023-02-22T07:36:03;22.80;;;13.52;;
70138;SDS011;57507;43.056;0.150;2023-02-22T07:38:30;24.85;;;13.32;;
70138;SDS011;57507;43.056;0.150;2023-02-22T07:40:56;25.13;;;12.35;;
70138;SDS011;57507;43.056;0.150;2023-02-22T07:43:23;19.23;;;12.30;;
70138;SDS011;57507;43.056;0.150;2023-02-22T07:45:50;23.92;;;12.95;;
70138;SDS011;57507;43.056;0.150;2023-02-22T07:48:17;25.02;;;14.80;;
70138;SDS011;57507;43.056;0.150;2023-02-22T07:50:44;22.58;;;12.45;;
70138;SDS011;57507;43.056;0.150;2023-02-22T07:53:11;21.15;;;13.25;;
70138;SDS011;57507;43.056;0.150;2023-02-22T07:55:38;20.70;;;12.68;;
70138;SDS011;57507;43.056;0.150;2023-02-22T07:58:06;23.85;;;13.50;;
70138;SDS011;57507;43.056;0.150;2023-02-22T08:00:34;24.85;;;14.27;;
70138;SDS011;57507;43.056;0.150;2023-02-22T08:03:01;24.63;;;14.45;;
70138;SDS011;57507;43.056;0.150;2023-02-22T08:05:28;22.27;;;13.82;;
70138;SDS011;57507;43.056;0.150;2023-02-22T08:07:54;22.90;;;13.35;;
70138;SDS011;57507;43.056;0.150;2023-02-22T08:10:21;25.92;;;13.98;;
70138;SDS011;57507;43.056;0.150;2023-02-22T08:12:48;28.90;;;14.32;;
70138;SDS011;57507;43.056;0.150;2023-02-22T08:15:15;24.80;;;13.45;;
70138;SDS011;57507;43.056;0.150;2023-02-22T08:17:42;24.73;;;14.48;;
70138;SDS011;57507;43.056;0.150;2023-02-22T08:20:08;20.85;;;12.80;;
70138;SDS011;57507;43.056;0.150;2023-02-22T08:22:34;25.77;;;14.23;;
70138;SDS011;57507;43.056;0.150;2023-02-22T08:25:00;20.88;;;12.20;;
70138;SDS011;57507;43.056;0.150;2023-02-22T08:27:27;24.05;;;12.30;;
70138;SDS011;57507;43.056;0.150;2023-02-22T08:29:53;21.45;;;12.77;;
70138;SDS011;57507;43.056;0.150;2023-02-22T08:32:19;21.80;;;12.82;;
70138;SDS011;57507;43.056;0.150;2023-02-22T08:34:45;23.02;;;13.05;;
70138;SDS011;57507;43.056;0.150;2023-02-22T08:37:12;24.77;;;13.10;;
70138;SDS011;57507;43.056;0.150;2023-02-22T08:39:38;24.38;;;13.10;;
70138;SDS011;57507;43.056;0.150;2023-02-22T08:42:04;21.08;;;12.48;;
70138;SDS011;57507;43.056;0.150;2023-02-22T08:44:33;22.55;;;12.07;;
70138;SDS011;57507;43.056;0.150;2023-02-22T08:46:59;20.38;;;12.45;;
70138;SDS011;57507;43.056;0.150;2023-02-22T08:49:25;17.45;;;11.18;;
70138;SDS011;57507;43.056;0.150;2023-02-22T08:51:51;24.23;;;11.93;;
70138;SDS011;57507;43.056;0.150;2023-02-22T08:54:17;26.02;;;12.15;;
70138;SDS011;57507;43.056;0.150;2023-02-22T08:56:43;20.50;;;11.10;;
70138;SDS011;57507;43.056;0.150;2023-02-22T08:59:09;22.13;;;11.75;;
70138;SDS011;57507;43.056;0.150;2023-02-22T09:01:35;21.83;;;12.10;;
70138;SDS011;57507;43.056;0.150;2023-02-22T09:04:01;23.05;;;11.82;;
70138;SDS011;57507;43.056;0.150;2023-02-22T09:06:28;24.63;;;12.13;;
70138;SDS011;57507;43.056;0.150;2023-02-22T09:08:54;20.40;;;11.65;;
70138;SDS011;57507;43.056;0.150;2023-02-22T09:11:20;20.92;;;11.40;;
70138;SDS011;57507;43.056;0.150;2023-02-22T09:13:46;21.67;;;12.65;;
70138;SDS011;57507;43.056;0.150;2023-02-22T09:16:12;16.90;;;11.60;;
70138;SDS011;57507;43.056;0.150;2023-02-22T09:18:38;23.00;;;12.25;;
70138;SDS011;57507;43.056;0.150;2023-02-22T09:21:04;20.42;;;12.10;;
70138;SDS011;57507;43.056;0.150;2023-02-22T09:23:30;22.77;;;12.35;;
70138;SDS011;57507;43.056;0.150;2023-02-22T09:25:57;22.02;;;11.82;;
70138;SDS011;57507;43.056;0.150;2023-02-22T09:28:24;24.55;;;12.70;;
70138;SDS011;57507;43.056;0.150;2023-02-22T09:30:50;20.40;;;12.80;;
70138;SDS011;57507;43.056;0.150;2023-02-22T09:33:18;23.83;;;11.00;;
70138;SDS011;57507;43.056;0.150;2023-02-22T09:35:45;22.48;;;12.32;;
70138;SDS011;57507;43.056;0.150;2023-02-22T09:38:13;28.23;;;13.68;;
70138;SDS011;57507;43.056;0.150;2023-02-22T09:40:42;26.05;;;12.90;;
70138;SDS011;57507;43.056;0.150;2023-02-22T09:43:20;18.85;;;11.77;;
70138;SDS011;57507;43.056;0.150;2023-02-22T09:48:55;19.35;;;12.55;;
70138;SDS011;57507;43.056;0.150;2023-02-22T09:51:23;16.77;;;10.70;;
70138;SDS011;57507;43.056;0.150;2023-02-22T09:53:52;26.40;;;15.18;;
70138;SDS011;57507;43.056;0.150;2023-02-22T09:56:20;24.75;;;14.98;;
70138;SDS011;57507;43.056;0.150;2023-02-22T09:58:51;23.30;;;13.48;;
70138;SDS011;57507;43.056;0.150;2023-02-22T10:06:22;18.65;;;10.57;;
70138;SDS011;57507;43.056;0.150;2023-02-22T10:08:49;18.42;;;11.00;;
70138;SDS011;57507;43.056;0.150;2023-02-22T10:16:35;20.65;;;10.95;;
70138;SDS011;57507;43.056;0.150;2023-02-22T10:26:44;22.52;;;14.13;;
70138;SDS011;57507;43.056;0.150;2023-02-22T10:31:40;23.92;;;13.43;;
70138;SDS011;57507;43.056;0.150;2023-02-22T10:34:20;18.55;;;10.35;;
70138;SDS011;57507;43.056;0.150;2023-02-22T10:36:48;24.45;;;12.20;;
70138;SDS011;57507;43.056;0.150;2023-02-22T10:41:48;20.15;;;12.13;;
70138;SDS011;57507;43.056;0.150;2023-02-22T10:44:16;22.55;;;11.23;;
70138;SDS011;57507;43.056;0.150;2023-02-22T10:46:42;14.82;;;8.65;;
70138;SDS011;57507;43.056;0.150;2023-02-22T10:49:09;18.00;;;9.80;;
70138;SDS011;57507;43.056;0.150;2023-02-22T10:51:35;18.65;;;8.90;;
70138;SDS011;57507;43.056;0.150;2023-02-22T10:56:47;17.63;;;8.35;;
70138;SDS011;57507;43.056;0.150;2023-02-22T11:01:52;19.83;;;9.23;;
70138;SDS011;57507;43.056;0.150;2023-02-22T11:04:19;19.13;;;7.55;;
70138;SDS011;57507;43.056;0.150;2023-02-22T11:06:47;10.13;;;5.90;;
70138;SDS011;57507;43.056;0.150;2023-02-22T11:09:18;19.25;;;6.97;;
70138;SDS011;57507;43.056;0.150;2023-02-22T11:11:46;15.85;;;6.80;;
70138;SDS011;57507;43.056;0.150;2023-02-22T11:14:23;13.40;;;6.05;;
70138;SDS011;57507;43.056;0.150;2023-02-22T11:16:50;14.75;;;5.88;;
70138;SDS011;57507;43.056;0.150;2023-02-22T11:19:38;14.13;;;5.70;;
70138;SDS011;57507;43.056;0.150;2023-02-22T11:24:29;12.55;;;5.63;;
70138;SDS011;57507;43.056;0.150;2023-02-22T11:27:02;10.27;;;4.43;;
70138;SDS011;57507;43.056;0.150;2023-02-22T11:29:32;13.15;;;5.35;;
70138;SDS011;57507;43.056;0.150;2023-02-22T11:32:18;15.30;;;4.65;;
70138;SDS011;57507;43.056;0.150;2023-02-22T11:34:46;17.27;;;5.25;;
70138;SDS011;57507;43.056;0.150;2023-02-22T11:40:07;14.80;;;5.53;;
70138;SDS011;57507;43.056;0.150;2023-02-22T11:42:36;11.98;;;4.95;;
70138;SDS011;57507;43.056;0.150;2023-02-22T11:45:10;13.02;;;4.75;;
70138;SDS011;57507;43.056;0.150;2023-02-22T11:50:27;9.98;;;3.92;;
70138;SDS011;57507;43.056;0.150;2023-02-22T11:53:00;9.95;;;4.38;;
70138;SDS011;57507;43.056;0.150;2023-02-22T11:55:31;7.50;;;3.25;;
70138;SDS011;57507;43.056;0.150;2023-02-22T12:03:14;8.07;;;3.83;;
70138;SDS011;57507;43.056;0.150;2023-02-22T12:05:58;9.07;;;4.10;;
70138;SDS011;57507;43.056;0.150;2023-02-22T12:08:31;10.27;;;3.95;;
70138;SDS011;57507;43.056;0.150;2023-02-22T12:16:12;7.22;;;3.10;;
70138;SDS011;57507;43.056;0.150;2023-02-22T12:18:45;9.00;;;4.45;;
70138;SDS011;57507;43.056;0.150;2023-02-22T12:21:17;8.82;;;3.53;;
70138;SDS011;57507;43.056;0.150;2023-02-22T12:23:49;10.20;;;3.63;;
70138;SDS011;57507;43.056;0.150;2023-02-22T12:26:17;7.45;;;3.00;;
70138;SDS011;57507;43.056;0.150;2023-02-22T12:28:51;10.90;;;3.50;;
70138;SDS011;57507;43.056;0.150;2023-02-22T12:36:42;8.18;;;4.28;;
70138;SDS011;57507;43.056;0.150;2023-02-22T12:41:49;10.65;;;4.20;;
70138;SDS011;57507;43.056;0.150;2023-02-22T12:44:21;11.70;;;4.43;;
70138;SDS011;57507;43.056;0.150;2023-02-22T12:46:49;11.32;;;3.95;;
70138;SDS011;57507;43.056;0.150;2023-02-22T12:49:25;15.40;;;4.63;;
70138;SDS011;57507;43.056;0.150;2023-02-22T12:57:04;12.63;;;4.47;;
70138;SDS011;57507;43.056;0.150;2023-02-22T13:02:13;7.72;;;3.50;;
70138;SDS011;57507;43.056;0.150;2023-02-22T13:04:40;12.13;;;4.63;;
70138;SDS011;57507;43.056;0.150;2023-02-22T13:09:44;7.78;;;4.50;;
70138;SDS011;57507;43.056;0.150;2023-02-22T13:12:49;12.23;;;5.20;;
70138;SDS011;57507;43.056;0.150;2023-02-22T13:30:21;16.10;;;6.07;;
70138;SDS011;57507;43.056;0.150;2023-02-22T13:35:30;13.82;;;4.55;;
70138;SDS011;57507;43.056;0.150;2023-02-22T13:53:33;14.07;;;5.25;;
70138;SDS011;57507;43.056;0.150;2023-02-22T13:56:01;11.73;;;5.05;;
70138;SDS011;57507;43.056;0.150;2023-02-22T13:58:27;13.52;;;5.35;;
70138;SDS011;57507;43.056;0.150;2023-02-22T14:00:54;15.02;;;4.70;;
70138;SDS011;57507;43.056;0.150;2023-02-22T14:05:51;8.38;;;3.80;;
70138;SDS011;57507;43.056;0.150;2023-02-22T14:10:47;13.20;;;4.32;;
70138;SDS011;57507;43.056;0.150;2023-02-22T14:13:23;8.55;;;3.30;;
70138;SDS011;57507;43.056;0.150;2023-02-22T14:18:28;11.05;;;3.95;;
70138;SDS011;57507;43.056;0.150;2023-02-22T14:21:05;8.55;;;3.58;;
70138;SDS011;57507;43.056;0.150;2023-02-22T14:23:41;10.88;;;4.07;;
70138;SDS011;57507;43.056;0.150;2023-02-22T14:26:08;13.90;;;4.07;;
70138;SDS011;57507;43.056;0.150;2023-02-22T14:31:17;13.43;;;4.22;;
70138;SDS011;57507;43.056;0.150;2023-02-22T14:33:51;7.95;;;3.33;;
70138;SDS011;57507;43.056;0.150;2023-02-22T14:36:51;10.15;;;3.95;;
70138;SDS011;57507;43.056;0.150;2023-02-22T14:41:50;15.15;;;3.67;;
70138;SDS011;57507;43.056;0.150;2023-02-22T14:44:20;6.13;;;2.67;;
70138;SDS011;57507;43.056;0.150;2023-02-22T14:46:47;6.70;;;2.83;;
70138;SDS011;57507;43.056;0.150;2023-02-22T14:49:16;6.00;;;2.50;;
70138;SDS011;57507;43.056;0.150;2023-02-22T14:51:48;5.63;;;2.13;;
70138;SDS011;57507;43.056;0.150;2023-02-22T14:54:32;6.40;;;2.90;;
70138;SDS011;57507;43.056;0.150;2023-02-22T14:57:06;8.27;;;2.75;;
70138;SDS011;57507;43.056;0.150;2023-02-22T15:02:22;6.70;;;2.58;;
70138;SDS011;57507;43.056;0.150;2023-02-22T15:04:53;7.88;;;2.45;;
70138;SDS011;57507;43.056;0.150;2023-02-22T15:09:51;5.65;;;2.40;;
70138;SDS011;57507;43.056;0.150;2023-02-22T15:12:25;7.80;;;2.55;;
70138;SDS011;57507;43.056;0.150;2023-02-22T15:15:09;4.55;;;2.28;;
70138;SDS011;57507;43.056;0.150;2023-02-22T15:17:37;8.55;;;2.40;;
70138;SDS011;57507;43.056;0.150;2023-02-22T15:20:05;9.43;;;2.72;;
70138;SDS011;57507;43.056;0.150;2023-02-22T15:22:33;8.27;;;2.95;;
70138;SDS011;57507;43.056;0.150;2023-02-22T15:25:02;8.73;;;2.20;;
70138;SDS011;57507;43.056;0.150;2023-02-22T15:27:29;8.77;;;2.65;;
70138;SDS011;57507;43.056;0.150;2023-02-22T15:30:02;6.55;;;2.20;;
70138;SDS011;57507;43.056;0.150;2023-02-22T15:32:31;5.05;;;2.40;;
70138;SDS011;57507;43.056;0.150;2023-02-22T15:35:31;8.25;;;2.50;;
70138;SDS011;57507;43.056;0.150;2023-02-22T15:40:46;6.28;;;2.70;;
70138;SDS011;57507;43.056;0.150;2023-02-22T15:43:22;10.88;;;2.85;;
70138;SDS011;57507;43.056;0.150;2023-02-22T15:45:48;9.40;;;3.20;;
70138;SDS011;57507;43.056;0.150;2023-02-22T15:48:15;7.22;;;2.60;;
70138;SDS011;57507;43.056;0.150;2023-02-22T15:50:57;6.68;;;2.30;;
70138;SDS011;57507;43.056;0.150;2023-02-22T15:53:25;6.73;;;2.20;;
70138;SDS011;57507;43.056;0.150;2023-02-22T15:55:55;5.88;;;1.90;;
70138;SDS011;57507;43.056;0.150;2023-02-22T15:58:23;6.32;;;2.40;;
70138;SDS011;57507;43.056;0.150;2023-02-22T16:01:08;7.50;;;3.88;;
70138;SDS011;57507;43.056;0.150;2023-02-22T16:03:39;9.07;;;2.20;;
70138;SDS011;57507;43.056;0.150;2023-02-22T16:06:12;3.83;;;2.28;;
70138;SDS011;57507;43.056;0.150;2023-02-22T16:08:41;9.68;;;2.80;;
70138;SDS011;57507;43.056;0.150;2023-02-22T16:11:08;7.00;;;2.67;;
70138;SDS011;57507;43.056;0.150;2023-02-22T16:13:38;8.13;;;2.50;;
70138;SDS011;57507;43.056;0.150;2023-02-22T16:18:49;7.72;;;2.53;;
70138;SDS011;57507;43.056;0.150;2023-02-22T16:21:17;7.47;;;2.95;;
70138;SDS011;57507;43.056;0.150;2023-02-22T16:23:46;5.88;;;2.80;;
70138;SDS011;57507;43.056;0.150;2023-02-22T16:26:20;9.80;;;2.88;;
70138;SDS011;57507;43.056;0.150;2023-02-22T16:28:47;10.50;;;3.63;;
70138;SDS011;57507;43.056;0.150;2023-02-22T16:31:16;9.30;;;3.30;;
70138;SDS011;57507;43.056;0.150;2023-02-22T16:33:44;9.40;;;2.85;;
70138;SDS011;57507;43.056;0.150;2023-02-22T16:36:10;9.52;;;3.33;;
70138;SDS011;57507;43.056;0.150;2023-02-22T16:38:36;7.75;;;2.75;;
70138;SDS011;57507;43.056;0.150;2023-02-22T16:41:03;9.80;;;2.88;;
70138;SDS011;57507;43.056;0.150;2023-02-22T16:43:30;7.88;;;2.60;;
70138;SDS011;57507;43.056;0.150;2023-02-22T16:45:57;9.77;;;2.67;;
70138;SDS011;57507;43.056;0.150;2023-02-22T16:48:25;12.70;;;4.50;;
70138;SDS011;57507;43.056;0.150;2023-02-22T16:50:54;9.90;;;3.33;;
70138;SDS011;57507;43.056;0.150;2023-02-22T16:53:22;8.45;;;3.15;;
70138;SDS011;57507;43.056;0.150;2023-02-22T16:55:49;8.88;;;3.42;;
70138;SDS011;57507;43.056;0.150;2023-02-22T16:58:22;11.63;;;3.05;;
70138;SDS011;57507;43.056;0.150;2023-02-22T17:00:52;7.32;;;3.33;;
70138;SDS011;57507;43.056;0.150;2023-02-22T17:03:18;8.75;;;2.97;;
70138;SDS011;57507;43.056;0.150;2023-02-22T17:05:44;9.35;;;3.47;;
70138;SDS011;57507;43.056;0.150;2023-02-22T17:08:10;6.28;;;3.08;;
70138;SDS011;57507;43.056;0.150;2023-02-22T17:10:36;12.77;;;3.83;;